Time,TemperatureF,DewpointF,PressureIn,WindDirection,WindDirectionDegrees,WindSpeedMPH,WindSpeedGustMPH,Humidity,HourlyPrecipIn,Conditions,Clouds,dailyrainin,SoftwareType,DateUTC
2013-01-24 00:11:00,19.9,12.0,30.22,North,0,7.8,-999.0,71,0.00,,,0.00,open2300 v1.10,2013-01-24 05:11:00,
2013-01-24 00:21:00,19.2,11.6,30.23,North,0,0.0,-999.0,72,0.00,,,0.00,open2300 v1.10,2013-01-24 05:21:00,
2013-01-24 00:31:00,19.0,11.7,30.23,North,0,11.0,-999.0,73,0.00,,,0.00,open2300 v1.10,2013-01-24 05:31:00,
2013-01-24 00:41:00,18.7,11.7,30.24,North,0,7.6,-999.0,74,0.00,,,0.00,open2300 v1.10,2013-01-24 05:41:00,
2013-01-24 00:51:00,17.8,10.2,30.25,North,0,7.8,-999.0,72,0.00,,,0.00,open2300 v1.10,2013-01-24 05:51:00,
2013-01-24 01:01:00,17.2,9.4,30.25,NNE,22,14.1,-999.0,71,0.00,,,0.00,open2300 v1.10,2013-01-24 06:01:00,
2013-01-24 01:11:00,16.7,8.9,30.26,North,0,6.9,-999.0,71,0.00,,,0.00,open2300 v1.10,2013-01-24 06:11:00,
2013-01-24 01:21:00,16.5,8.7,30.27,North,0,2.9,-999.0,71,0.00,,,0.00,open2300 v1.10,2013-01-24 06:21:00,
2013-01-24 01:31:00,16.2,8.4,30.28,North,0,6.3,-999.0,71,0.00,,,0.00,open2300 v1.10,2013-01-24 06:31:00,
2013-01-24 01:41:00,16.0,8.2,30.29,North,0,2.7,-999.0,71,0.00,,,0.00,open2300 v1.10,2013-01-24 06:41:00,
2013-01-24 01:51:00,15.6,7.8,30.30,North,0,7.4,-999.0,71,0.00,,,0.00,open2300 v1.10,2013-01-24 06:51:00,
2013-01-24 02:01:00,15.6,7.5,30.30,NNE,22,6.0,-999.0,70,0.00,,,0.00,open2300 v1.10,2013-01-24 07:01:00,
2013-01-24 02:11:00,15.4,7.4,30.31,North,0,4.0,-999.0,70,0.00,,,0.00,open2300 v1.10,2013-01-24 07:11:00,
2013-01-24 02:21:00,15.1,7.1,30.32,North,0,0.0,-999.0,70,0.00,,,0.00,open2300 v1.10,2013-01-24 07:21:00,
2013-01-24 02:31:00,14.7,6.7,30.32,North,0,2.5,-999.0,70,0.00,,,0.00,open2300 v1.10,2013-01-24 07:31:00,
2013-01-24 02:41:00,14.5,6.6,30.33,North,0,5.6,-999.0,70,0.00,,,0.00,open2300 v1.10,2013-01-24 07:41:00,
2013-01-24 02:51:00,14.2,6.2,30.34,North,0,8.1,-999.0,70,0.00,,,0.00,open2300 v1.10,2013-01-24 07:51:00,
2013-01-24 03:01:00,13.8,5.9,30.35,North,0,7.6,-999.0,70,0.00,,,0.00,open2300 v1.10,2013-01-24 08:01:00,
2013-01-24 03:11:00,13.6,5.7,30.35,North,0,0.0,-999.0,70,0.00,,,0.00,open2300 v1.10,2013-01-24 08:11:00,
2013-01-24 03:21:00,13.3,5.4,30.36,North,0,13.0,-999.0,70,0.00,,,0.00,open2300 v1.10,2013-01-24 08:21:00,
2013-01-24 03:31:00,13.1,5.2,30.36,NNE,22,4.0,-999.0,70,0.00,,,0.00,open2300 v1.10,2013-01-24 08:31:00,
2013-01-24 03:41:00,12.9,5.0,30.37,North,0,7.8,-999.0,70,0.00,,,0.00,open2300 v1.10,2013-01-24 08:41:00,
2013-01-24 03:51:00,12.6,4.6,30.38,North,0,8.1,-999.0,70,0.00,,,0.00,open2300 v1.10,2013-01-24 08:51:00,
2013-01-24 04:01:00,12.4,4.8,30.38,North,0,7.2,-999.0,71,0.00,,,0.00,open2300 v1.10,2013-01-24 09:01:00,
2013-01-24 04:11:00,12.0,4.1,30.38,North,0,0.4,-999.0,70,0.00,,,0.00,open2300 v1.10,2013-01-24 09:11:00,
2013-01-24 04:21:00,11.8,4.2,30.38,North,0,3.4,-999.0,71,0.00,,,0.00,open2300 v1.10,2013-01-24 09:21:00,
2013-01-24 04:31:00,11.7,3.7,30.38,North,0,6.9,-999.0,70,0.00,,,0.00,open2300 v1.10,2013-01-24 09:31:00,
2013-01-24 04:41:00,11.5,3.6,30.40,North,0,3.4,-999.0,70,0.00,,,0.00,open2300 v1.10,2013-01-24 09:41:00,
2013-01-24 04:51:00,11.1,3.2,30.40,North,0,3.1,-999.0,70,0.00,,,0.00,open2300 v1.10,2013-01-24 09:51:00,
2013-01-24 05:01:00,11.1,3.2,30.40,North,0,7.2,-999.0,70,0.00,,,0.00,open2300 v1.10,2013-01-24 10:01:00,
2013-01-24 05:11:00,10.9,3.0,30.41,North,0,2.5,-999.0,70,0.00,,,0.00,open2300 v1.10,2013-01-24 10:11:00,
2013-01-24 05:21:00,10.8,2.8,30.41,North,0,2.5,-999.0,70,0.00,,,0.00,open2300 v1.10,2013-01-24 10:21:00,
2013-01-24 05:31:00,10.6,2.3,30.42,North,0,3.6,-999.0,69,0.00,,,0.00,open2300 v1.10,2013-01-24 10:31:00,
2013-01-24 05:41:00,10.2,2.0,30.43,North,0,6.3,-999.0,69,0.00,,,0.00,open2300 v1.10,2013-01-24 10:41:00,
2013-01-24 05:51:00,10.2,2.0,30.43,North,0,0.7,-999.0,69,0.00,,,0.00,open2300 v1.10,2013-01-24 10:51:00,
2013-01-24 06:01:00,10.0,1.8,30.45,North,0,2.7,-999.0,69,0.00,,,0.00,open2300 v1.10,2013-01-24 11:01:00,
2013-01-24 06:11:00,9.7,1.5,30.45,North,0,1.8,-999.0,69,0.00,,,0.00,open2300 v1.10,2013-01-24 11:11:00,
2013-01-24 06:21:00,9.7,1.5,30.46,North,0,5.1,-999.0,69,0.00,,,0.00,open2300 v1.10,2013-01-24 11:21:00,
2013-01-24 06:31:00,9.7,1.5,30.46,North,0,2.7,-999.0,69,0.00,,,0.00,open2300 v1.10,2013-01-24 11:31:00,
2013-01-24 06:41:00,9.7,1.2,30.47,North,0,2.9,-999.0,68,0.00,,,0.00,open2300 v1.10,2013-01-24 11:41:00,
2013-01-24 06:51:00,9.7,1.2,30.47,NNE,22,1.6,-999.0,68,0.00,,,0.00,open2300 v1.10,2013-01-24 11:51:00,
2013-01-24 07:01:00,9.7,1.5,30.49,North,0,6.5,-999.0,69,0.00,,,0.00,open2300 v1.10,2013-01-24 12:01:00,
2013-01-24 07:11:00,9.7,1.5,30.48,North,0,0.0,-999.0,69,0.00,,,0.00,open2300 v1.10,2013-01-24 12:11:00,
2013-01-24 07:21:00,9.7,1.5,30.48,North,0,0.0,-999.0,69,0.00,,,0.00,open2300 v1.10,2013-01-24 12:21:00,
2013-01-24 07:31:00,9.5,1.3,30.49,North,0,0.0,-999.0,69,0.00,,,0.00,open2300 v1.10,2013-01-24 12:31:00,
2013-01-24 07:41:00,9.5,1.3,30.51,North,0,0.0,-999.0,69,0.00,,,0.00,open2300 v1.10,2013-01-24 12:41:00,
2013-01-24 07:51:00,9.5,1.3,30.50,North,0,0.0,-999.0,69,0.00,,,0.00,open2300 v1.10,2013-01-24 12:51:00,
2013-01-24 08:01:00,9.3,1.2,30.50,North,0,0.0,-999.0,69,0.00,,,0.00,open2300 v1.10,2013-01-24 13:01:00,
2013-01-24 08:11:00,9.3,1.2,30.50,North,0,0.0,-999.0,69,0.00,,,0.00,open2300 v1.10,2013-01-24 13:11:00,
2013-01-24 08:21:00,9.1,1.0,30.49,North,0,0.0,-999.0,69,0.00,,,0.00,open2300 v1.10,2013-01-24 13:21:00,
2013-01-24 08:31:00,9.1,1.0,30.51,North,0,0.0,-999.0,69,0.00,,,0.00,open2300 v1.10,2013-01-24 13:31:00,
2013-01-24 08:41:00,9.1,1.0,30.52,North,0,0.0,-999.0,69,0.00,,,0.00,open2300 v1.10,2013-01-24 13:41:00,
2013-01-24 08:51:00,9.1,1.0,30.52,North,0,0.0,-999.0,69,0.00,,,0.00,open2300 v1.10,2013-01-24 13:51:00,
2013-01-24 09:01:00,9.7,1.8,30.53,North,0,0.0,-999.0,70,0.00,,,0.00,open2300 v1.10,2013-01-24 14:01:00,
2013-01-24 09:11:00,10.0,2.2,30.53,North,0,0.0,-999.0,70,0.00,,,0.00,open2300 v1.10,2013-01-24 14:11:00,
2013-01-24 09:21:00,10.6,2.7,30.53,North,0,0.0,-999.0,70,0.00,,,0.00,open2300 v1.10,2013-01-24 14:21:00,
2013-01-24 09:31:00,10.9,3.0,30.54,NNE,22,0.0,-999.0,70,0.00,,,0.00,open2300 v1.10,2013-01-24 14:31:00,
2013-01-24 09:41:00,11.5,3.6,30.55,NNE,22,0.0,-999.0,70,0.00,,,0.00,open2300 v1.10,2013-01-24 14:41:00,
2013-01-24 09:51:00,12.0,4.1,30.56,North,0,7.2,-999.0,70,0.00,,,0.00,open2300 v1.10,2013-01-24 14:51:00,
2013-01-24 10:01:00,12.6,4.9,30.57,NNE,22,1.8,-999.0,71,0.00,,,0.00,open2300 v1.10,2013-01-24 15:01:00,
2013-01-24 10:11:00,12.9,5.3,30.57,North,0,0.0,-999.0,71,0.00,,,0.00,open2300 v1.10,2013-01-24 15:11:00,
2013-01-24 10:21:00,13.3,5.9,30.57,North,0,0.0,-999.0,72,0.00,,,0.00,open2300 v1.10,2013-01-24 15:21:00,
2013-01-24 10:31:00,13.6,6.0,30.58,North,0,0.0,-999.0,71,0.00,,,0.00,open2300 v1.10,2013-01-24 15:31:00,
2013-01-24 10:41:00,13.8,6.2,30.58,NNE,22,0.0,-999.0,71,0.00,,,0.00,open2300 v1.10,2013-01-24 15:41:00,
2013-01-24 10:51:00,14.2,6.5,30.59,NNE,22,3.8,-999.0,71,0.00,,,0.00,open2300 v1.10,2013-01-24 15:51:00,
2013-01-24 11:01:00,14.5,6.8,30.59,NNE,22,0.0,-999.0,71,0.00,,,0.00,open2300 v1.10,2013-01-24 16:01:00,
2013-01-24 11:11:00,14.5,6.8,30.59,North,0,0.0,-999.0,71,0.00,,,0.00,open2300 v1.10,2013-01-24 16:11:00,
2013-01-24 11:21:00,14.7,6.7,30.60,NNE,22,0.0,-999.0,70,0.00,,,0.00,open2300 v1.10,2013-01-24 16:21:00,
2013-01-24 11:31:00,15.6,7.8,30.59,NNE,22,0.0,-999.0,71,0.00,,,0.00,open2300 v1.10,2013-01-24 16:31:00,
2013-01-24 11:41:00,16.0,7.9,30.59,North,0,0.0,-999.0,70,0.00,,,0.00,open2300 v1.10,2013-01-24 16:41:00,
2013-01-24 11:51:00,16.3,8.2,30.59,North,0,0.0,-999.0,70,0.00,,,0.00,open2300 v1.10,2013-01-24 16:51:00,
2013-01-24 12:01:00,17.2,9.1,30.58,North,0,0.0,-999.0,70,0.00,,,0.00,open2300 v1.10,2013-01-24 17:01:00,
2013-01-24 12:11:00,17.8,9.7,30.58,North,0,0.0,-999.0,70,0.00,,,0.00,open2300 v1.10,2013-01-24 17:11:00,
2013-01-24 12:21:00,19.0,10.4,30.58,North,0,0.0,-999.0,69,0.00,,,0.00,open2300 v1.10,2013-01-24 17:21:00,
2013-01-24 12:31:00,20.1,10.8,30.57,NNE,22,0.0,-999.0,67,0.00,,,0.00,open2300 v1.10,2013-01-24 17:31:00,
2013-01-24 12:41:00,20.7,11.0,30.57,NNE,22,0.0,-999.0,66,0.00,,,0.00,open2300 v1.10,2013-01-24 17:41:00,
2013-01-24 12:51:00,20.8,10.9,30.57,North,0,0.0,-999.0,65,0.00,,,0.00,open2300 v1.10,2013-01-24 17:51:00,
2013-01-24 13:01:00,21.4,11.0,30.56,NNE,22,0.0,-999.0,64,0.00,,,0.00,open2300 v1.10,2013-01-24 18:01:00,
2013-01-24 13:11:00,22.1,11.4,30.56,NNE,22,0.0,-999.0,63,0.00,,,0.00,open2300 v1.10,2013-01-24 18:11:00,
2013-01-24 13:21:00,23.2,11.6,30.55,NNE,22,0.0,-999.0,61,0.00,,,0.00,open2300 v1.10,2013-01-24 18:21:00,
2013-01-24 13:31:00,23.5,11.2,30.54,North,0,0.0,-999.0,59,0.00,,,0.00,open2300 v1.10,2013-01-24 18:31:00,
2013-01-24 13:41:00,23.7,11.4,30.54,NNE,22,0.0,-999.0,59,0.00,,,0.00,open2300 v1.10,2013-01-24 18:41:00,
2013-01-24 13:51:00,24.6,11.5,30.53,WNW,292,0.0,-999.0,57,0.00,,,0.00,open2300 v1.10,2013-01-24 18:51:00,
2013-01-24 14:01:00,24.8,11.3,30.53,NNE,22,0.0,-999.0,56,0.00,,,0.00,open2300 v1.10,2013-01-24 19:01:00,
2013-01-24 14:11:00,24.6,10.7,30.53,WNW,292,0.0,-999.0,55,0.00,,,0.00,open2300 v1.10,2013-01-24 19:11:00,
2013-01-24 14:21:00,24.6,10.3,30.52,WNW,292,0.0,-999.0,54,0.00,,,0.00,open2300 v1.10,2013-01-24 19:21:00,
2013-01-24 14:31:00,25.3,10.9,30.52,WNW,292,0.0,-999.0,54,0.00,,,0.00,open2300 v1.10,2013-01-24 19:31:00,
2013-01-24 14:41:00,25.7,10.4,30.52,WNW,292,0.0,-999.0,52,0.00,,,0.00,open2300 v1.10,2013-01-24 19:41:00,
2013-01-24 14:51:00,25.7,10.0,30.53,WNW,292,0.0,-999.0,51,0.00,,,0.00,open2300 v1.10,2013-01-24 19:51:00,
2013-01-24 15:01:00,25.5,9.4,30.52,NNE,22,0.0,-999.0,50,0.00,,,0.00,open2300 v1.10,2013-01-24 20:01:00,
2013-01-24 15:11:00,25.7,9.6,30.53,WNW,292,0.0,-999.0,50,0.00,,,0.00,open2300 v1.10,2013-01-24 20:11:00,
2013-01-24 15:21:00,26.2,9.6,30.52,WNW,292,0.0,-999.0,49,0.00,,,0.00,open2300 v1.10,2013-01-24 20:21:00,
2013-01-24 15:31:00,26.2,9.6,30.52,WNW,292,0.0,-999.0,49,0.00,,,0.00,open2300 v1.10,2013-01-24 20:31:00,
2013-01-24 15:41:00,25.3,8.3,30.51,WNW,292,0.0,-999.0,48,0.00,,,0.00,open2300 v1.10,2013-01-24 20:41:00,
2013-01-24 15:51:00,25.0,8.0,30.51,WNW,292,0.0,-999.0,48,0.00,,,0.00,open2300 v1.10,2013-01-24 20:51:00,
2013-01-24 16:01:00,25.0,8.0,30.51,WNW,292,0.0,-999.0,48,0.00,,,0.00,open2300 v1.10,2013-01-24 21:01:00,
2013-01-24 16:11:00,24.4,8.0,30.51,WNW,292,0.0,-999.0,49,0.00,,,0.00,open2300 v1.10,2013-01-24 21:11:00,
2013-01-24 16:21:00,23.9,7.5,30.51,WNW,292,0.0,-999.0,49,0.00,,,0.00,open2300 v1.10,2013-01-24 21:21:00,
2013-01-24 16:31:00,23.7,6.8,30.49,WNW,292,0.0,-999.0,48,0.00,,,0.00,open2300 v1.10,2013-01-24 21:31:00,
2013-01-24 16:41:00,23.5,6.7,30.51,WNW,292,0.0,-999.0,48,0.00,,,0.00,open2300 v1.10,2013-01-24 21:41:00,
2013-01-24 16:51:00,23.5,6.7,30.49,WNW,292,0.0,-999.0,48,0.00,,,0.00,open2300 v1.10,2013-01-24 21:51:00,
2013-01-24 17:01:00,23.4,6.5,30.50,WNW,292,0.0,-999.0,48,0.00,,,0.00,open2300 v1.10,2013-01-24 22:01:00,
2013-01-24 17:11:00,22.8,6.0,30.50,WNW,292,0.0,-999.0,48,0.00,,,0.00,open2300 v1.10,2013-01-24 22:11:00,
2013-01-24 17:21:00,22.6,6.3,30.50,WNW,292,0.0,-999.0,49,0.00,,,0.00,open2300 v1.10,2013-01-24 22:21:00,
2013-01-24 17:31:00,22.5,6.1,30.49,WNW,292,0.0,-999.0,49,0.00,,,0.00,open2300 v1.10,2013-01-24 22:31:00,
2013-01-24 17:41:00,22.1,5.8,30.49,WNW,292,0.0,-999.0,49,0.00,,,0.00,open2300 v1.10,2013-01-24 22:41:00,
2013-01-24 17:51:00,21.9,6.1,30.48,WNW,292,0.0,-999.0,50,0.00,,,0.00,open2300 v1.10,2013-01-24 22:51:00,
2013-01-24 18:01:00,21.7,5.9,30.48,WNW,292,0.0,-999.0,50,0.00,,,0.00,open2300 v1.10,2013-01-24 23:01:00,
2013-01-24 18:11:00,21.6,5.7,30.48,WNW,292,0.0,-999.0,50,0.00,,,0.00,open2300 v1.10,2013-01-24 23:11:00,
2013-01-24 18:21:00,21.4,5.5,30.49,WNW,292,0.0,-999.0,50,0.00,,,0.00,open2300 v1.10,2013-01-24 23:21:00,
2013-01-24 18:31:00,21.4,5.9,30.49,WNW,292,0.0,-999.0,51,0.00,,,0.00,open2300 v1.10,2013-01-24 23:31:00,
2013-01-24 18:41:00,21.2,5.8,30.49,WNW,292,0.0,-999.0,51,0.00,,,0.00,open2300 v1.10,2013-01-24 23:41:00,
2013-01-24 18:51:00,21.0,5.6,30.49,WNW,292,0.0,-999.0,51,0.00,,,0.00,open2300 v1.10,2013-01-24 23:51:00,
2013-01-24 19:01:00,21.0,5.6,30.49,WNW,292,0.0,-999.0,51,0.00,,,0.00,open2300 v1.10,2013-01-25 00:01:00,
2013-01-24 19:11:00,21.0,5.6,30.48,WNW,292,0.0,-999.0,51,0.00,,,0.00,open2300 v1.10,2013-01-25 00:11:00,
2013-01-24 19:21:00,20.8,5.4,30.48,WNW,292,0.0,-999.0,51,0.00,,,0.00,open2300 v1.10,2013-01-25 00:21:00,
2013-01-24 19:31:00,20.8,5.4,30.46,WNW,292,0.0,-999.0,51,0.00,,,0.00,open2300 v1.10,2013-01-25 00:31:00,
2013-01-24 19:41:00,20.8,5.4,30.46,WNW,292,0.0,-999.0,51,0.00,,,0.00,open2300 v1.10,2013-01-25 00:41:00,
2013-01-24 19:51:00,20.5,5.1,30.46,WNW,292,0.0,-999.0,51,0.00,,,0.00,open2300 v1.10,2013-01-25 00:51:00,
2013-01-24 20:01:00,20.5,5.5,30.46,WNW,292,0.0,-999.0,52,0.00,,,0.00,open2300 v1.10,2013-01-25 01:01:00,
2013-01-24 20:11:00,20.5,5.5,30.46,WNW,292,0.0,-999.0,52,0.00,,,0.00,open2300 v1.10,2013-01-25 01:11:00,
2013-01-24 20:21:00,20.5,5.5,30.46,WNW,292,0.0,-999.0,52,0.00,,,0.00,open2300 v1.10,2013-01-25 01:21:00,
2013-01-24 20:31:00,20.5,5.5,30.46,WNW,292,0.0,-999.0,52,0.00,,,0.00,open2300 v1.10,2013-01-25 01:31:00,
2013-01-24 20:41:00,20.5,5.5,30.44,WNW,292,0.0,-999.0,52,0.00,,,0.00,open2300 v1.10,2013-01-25 01:41:00,
2013-01-24 20:51:00,20.5,5.5,30.44,WNW,292,0.0,-999.0,52,0.00,,,0.00,open2300 v1.10,2013-01-25 01:51:00,
2013-01-24 21:01:00,20.5,5.9,30.44,WNW,292,0.0,-999.0,53,0.00,,,0.00,open2300 v1.10,2013-01-25 02:01:00,
2013-01-24 21:11:00,20.5,5.9,30.45,NNE,22,0.0,-999.0,53,0.00,,,0.00,open2300 v1.10,2013-01-25 02:11:00,
2013-01-24 21:21:00,20.5,6.3,30.44,WNW,292,0.0,-999.0,54,0.00,,,0.00,open2300 v1.10,2013-01-25 02:21:00,
2013-01-24 21:31:00,20.5,6.3,30.43,WNW,292,0.0,-999.0,54,0.00,,,0.00,open2300 v1.10,2013-01-25 02:31:00,
2013-01-24 21:41:00,20.5,6.8,30.42,WNW,292,0.0,-999.0,55,0.00,,,0.00,open2300 v1.10,2013-01-25 02:41:00,
2013-01-24 21:51:00,20.5,6.8,30.41,WNW,292,0.0,-999.0,55,0.00,,,0.00,open2300 v1.10,2013-01-25 02:51:00,
2013-01-24 22:01:00,20.5,7.1,30.40,WNW,292,0.0,-999.0,56,0.00,,,0.00,open2300 v1.10,2013-01-25 03:01:00,
2013-01-24 22:11:00,20.5,7.1,30.41,WNW,292,0.0,-999.0,56,0.00,,,0.00,open2300 v1.10,2013-01-25 03:11:00,
2013-01-24 22:21:00,20.5,7.6,30.40,WNW,292,0.0,-999.0,57,0.00,,,0.00,open2300 v1.10,2013-01-25 03:21:00,
2013-01-24 22:31:00,20.5,7.6,30.40,WNW,292,0.0,-999.0,57,0.00,,,0.00,open2300 v1.10,2013-01-25 03:31:00,
2013-01-24 22:41:00,20.5,7.6,30.41,North,0,0.0,-999.0,57,0.00,,,0.00,open2300 v1.10,2013-01-25 03:41:00,
2013-01-24 22:51:00,20.5,7.6,30.41,East,90,0.0,-999.0,57,0.00,,,0.00,open2300 v1.10,2013-01-25 03:51:00,
2013-01-24 23:01:00,20.5,7.6,30.40,WNW,292,0.0,-999.0,57,0.00,,,0.00,open2300 v1.10,2013-01-25 04:01:00,
2013-01-24 23:11:00,20.5,7.6,30.39,WNW,292,0.0,-999.0,57,0.00,,,0.00,open2300 v1.10,2013-01-25 04:11:00,
2013-01-24 23:21:00,20.5,7.6,30.39,WNW,292,0.0,-999.0,57,0.00,,,0.00,open2300 v1.10,2013-01-25 04:21:00,
2013-01-24 23:31:00,20.5,7.6,30.39,WNW,292,0.0,-999.0,57,0.00,,,0.00,open2300 v1.10,2013-01-25 04:31:00,
2013-01-24 23:41:00,20.7,7.7,30.38,WNW,292,0.0,-999.0,57,0.00,,,0.00,open2300 v1.10,2013-01-25 04:41:00,
2013-01-24 23:51:00,20.5,7.9,30.37,WNW,292,0.0,-999.0,58,0.00,,,0.00,open2300 v1.10,2013-01-25 04:51:00,